Terminal Aerodrome Forecast
Issued by NWS

Current Version | Previous Version | Text Only | Print | Product List | Glossary Off
Versions: 1 2 3 4 5 6 7 8 9 10 11 12 13 14 15 16 17 18 19 20

003
FTUS41 KPBZ 030603 AAA
TAFHLG
TAF AMD
KHLG 030603Z 0306/0406 36005KT P6SM SCT010 OVC050
      TEMPO 0306/0310 BKN010
     FM031000 35005KT P6SM BKN010
     FM031400 30008KT P6SM BKN040=

USA.gov is the U.S. government's official web portal to all federal, state and local government web resources and services.